Linden, MI (48451)

1:42 PM EST on February 13, 2016 (GMT -0500)
Chestnut Grove | | Change Station
CLOSE
Current Station
Personal Weather Station
Location: Linden, MI
Elevation: 872 ft
Nearby Weather Stations

Elev 872 ft 42.81 °N, 83.80 °W | Updated 11 seconds ago

Overcast
Overcast
10.5 °F
Feels Like 1 °F
N
6.0
Wind Variable Wind from North
Gusts 6.0 mph

Today
High -- | Low -- °F
--% Chance of Precip.
Yesterday
High -- | Low -- °F
Precip. -- in
Pressure 30.49 in
Visibility 10.0 miles
Clouds Scattered Clouds 2500 ft
Windchill 1 °F
Dew Point 3 °F
Humidity 70%
Rainfall 0.00 in
Snow Depth Not available.
7:35 AM 6:03 PM
Waxing Crescent, 33% visible
METAR KFNT 131753Z 34005KT 10SM SCT025 M11/M19 A3043 RMK AO2 SLP325 60000 T11111189 11111 21167 50005
Pressure 30.49 in
Visibility 10.0 miles
Clouds Scattered Clouds 2500 ft
Windchill 1 °F
Dew Point 3 °F
Humidity 70%
Rainfall 0.00 in
Snow Depth Not available.
7:35 AM 6:03 PM
Waxing Crescent, 33% visible
METAR KFNT 131753Z 34005KT 10SM SCT025 M11/M19 A3043 RMK AO2 SLP325 60000 T11111189 11111 21167 50005

10-Day Weather Forecast

Almanac

Astronomy

Feb. 13, 2016 Rise Set
Actual Time
Civil Twilight
Nautical Twilight
Astronomical Twilight
Moon
Length of Visible Light
Length of Day
Tomorrow will be .
, % of the Moon is Illuminated

Today's Extremes

State Highs State Lows

Community

WunderPhotos

Upload Photos

1,892,633 photos uploaded!

WunderBlog® & News

Nearby

Air Quality

  Air Quality AQ Index Pollutant
Not available.

Snow Depth

Station Depth Elevation

Earthquake Activity

City Distance Mag. Time & Date
Minimum magnitude displayed is 2.5.

Coastal Water Temperatures

Place Temperature

Stations

Nearby Weather Stations

Station Location Temp. Windchill Dew Point Humidity Wind Precip. Elev Updated Type
                   

Watches & Warnings

There are currently no watches in effect.